createdAt,value
2022-08-19T00:01:59.202Z,7.55
2022-08-19T00:04:37.259Z,7.60
2022-08-19T00:07:07.108Z,7.15
2022-08-19T00:09:34.680Z,6.43
2022-08-19T00:12:02.176Z,6.13
2022-08-19T00:14:33.512Z,6.72
2022-08-19T00:17:01.931Z,7.07
2022-08-19T00:19:29.609Z,6.97
2022-08-19T00:21:57.094Z,6.60
2022-08-19T00:24:24.431Z,6.53
2022-08-19T00:26:52.693Z,6.63
2022-08-19T00:29:22.179Z,7.10
2022-08-19T00:31:51.057Z,6.60
2022-08-19T00:34:18.396Z,6.15
2022-08-19T00:36:47.693Z,6.90
2022-08-19T00:39:17.472Z,7.07
2022-08-19T00:41:49.944Z,7.00
2022-08-19T00:44:28.033Z,7.28
2022-08-19T00:46:59.908Z,7.15
2022-08-19T00:49:41.720Z,7.38
2022-08-19T00:52:23.008Z,6.47
2022-08-19T00:54:52.686Z,7.28
2022-08-19T00:57:27.465Z,7.25
2022-08-19T01:00:02.499Z,6.85
2022-08-19T01:02:32.359Z,7.78
2022-08-19T01:05:03.940Z,6.55
2022-08-19T01:07:37.581Z,6.93
2022-08-19T01:10:13.357Z,6.75
2022-08-19T01:12:41.392Z,6.70
2022-08-19T01:15:12.722Z,6.78
2022-08-19T01:17:40.811Z,7.10
2022-08-19T01:20:13.624Z,6.40
2022-08-19T01:22:51.224Z,6.88
2022-08-19T01:25:22.679Z,7.22
2022-08-19T01:27:53.781Z,7.72
2022-08-19T01:30:29.104Z,7.72
2022-08-19T01:32:57.632Z,7.97
2022-08-19T01:35:27.693Z,8.15
2022-08-19T01:38:09.480Z,8.27
2022-08-19T01:40:40.043Z,7.65
2022-08-19T01:43:07.505Z,7.53
2022-08-19T01:45:36.177Z,7.72
2022-08-19T01:48:03.512Z,7.68
2022-08-19T01:50:33.437Z,7.30
2022-08-19T01:53:06.389Z,7.50
2022-08-19T01:55:40.910Z,6.95
2022-08-19T01:58:19.721Z,6.68
2022-08-19T02:00:48.555Z,6.53
2022-08-19T02:03:16.913Z,6.43
2022-08-19T02:05:45.126Z,6.13
2022-08-19T02:08:12.677Z,6.22
2022-08-19T02:10:44.020Z,6.50
2022-08-19T02:13:15.764Z,7.10
2022-08-19T02:15:50.484Z,7.25
2022-08-19T02:18:17.686Z,7.13
2022-08-19T02:20:45.867Z,7.40
2022-08-19T02:23:16.184Z,7.53
2022-08-19T02:25:48.944Z,7.60
2022-08-19T02:28:18.781Z,7.60
2022-08-19T02:30:47.902Z,7.55
2022-08-19T02:33:15.201Z,6.70
2022-08-19T02:35:47.929Z,6.80
2022-08-19T02:38:28.161Z,7.47
2022-08-19T02:41:06.271Z,7.47
2022-08-19T02:43:37.324Z,6.93
2022-08-19T02:46:24.323Z,7.88
2022-08-19T02:48:58.992Z,7.95
2022-08-19T02:51:30.266Z,7.30
2022-08-19T02:53:58.112Z,8.10
2022-08-19T02:56:28.404Z,7.30
2022-08-19T02:58:56.498Z,7.72
2022-08-19T03:01:32.376Z,8.40
2022-08-19T03:06:30.715Z,8.25
2022-08-19T03:08:58.824Z,7.43
2022-08-19T03:11:31.827Z,8.00
2022-08-19T03:14:01.017Z,7.97
2022-08-19T03:16:33.215Z,8.43
2022-08-19T03:19:02.822Z,7.65
2022-08-19T03:21:35.330Z,8.32
2022-08-19T03:24:07.649Z,8.02
2022-08-19T03:26:39.938Z,7.97
2022-08-19T03:29:08.627Z,7.90
2022-08-19T03:31:44.424Z,7.95
2022-08-19T03:34:27.372Z,8.25
2022-08-19T03:37:01.532Z,8.50
2022-08-19T03:39:28.996Z,8.15
2022-08-19T03:42:32.457Z,8.85
2022-08-19T03:44:48.270Z,8.80
2022-08-19T03:47:16.363Z,8.38
2022-08-19T03:49:44.043Z,9.00
2022-08-19T03:52:11.346Z,8.55
2022-08-19T03:54:39.395Z,8.77
2022-08-19T03:57:07.123Z,8.43
2022-08-19T03:59:37.088Z,9.07
2022-08-19T04:02:11.258Z,8.52
2022-08-19T04:04:41.062Z,8.50
2022-08-19T04:07:09.267Z,8.20
2022-08-19T04:09:39.849Z,9.10
2022-08-19T04:12:07.586Z,8.35
2022-08-19T04:14:35.731Z,8.65
2022-08-19T04:17:05.781Z,10.02
2022-08-19T04:19:35.963Z,9.90
2022-08-19T04:22:04.856Z,9.35
2022-08-19T04:24:32.912Z,9.25
2022-08-19T04:27:03.562Z,9.60
2022-08-19T04:29:31.213Z,9.75
2022-08-19T04:31:59.640Z,10.00
2022-08-19T04:34:30.465Z,10.30
2022-08-19T04:36:59.734Z,10.23
2022-08-19T04:39:50.174Z,9.75
2022-08-19T04:42:37.735Z,10.25
2022-08-19T04:45:09.277Z,9.70
2022-08-19T04:47:47.740Z,9.32
2022-08-19T04:50:28.416Z,8.82
2022-08-19T04:52:57.960Z,8.90
2022-08-19T04:55:28.577Z,9.32
2022-08-19T04:57:55.902Z,8.75
2022-08-19T05:00:23.872Z,9.70
2022-08-19T05:02:51.075Z,9.30
2022-08-19T05:05:18.644Z,8.73
2022-08-19T05:07:45.847Z,7.45
2022-08-19T05:10:13.685Z,6.63
2022-08-19T05:12:40.745Z,6.97
2022-08-19T05:15:10.044Z,6.88
2022-08-19T05:17:38.934Z,7.95
2022-08-19T05:20:27.292Z,7.60
2022-08-19T05:22:54.594Z,8.10
2022-08-19T05:25:22.763Z,9.07
2022-08-19T05:27:50.092Z,9.18
2022-08-19T05:30:17.928Z,8.88
2022-08-19T05:32:45.683Z,9.50
2022-08-19T05:35:12.919Z,10.10
2022-08-19T05:37:43.915Z,10.80
2022-08-19T05:40:11.659Z,10.73
2022-08-19T05:42:39.761Z,11.20
2022-08-19T05:45:08.799Z,11.32
2022-08-19T05:47:36.525Z,11.68
2022-08-19T05:50:09.758Z,10.82
2022-08-19T05:52:39.263Z,11.13
2022-08-19T05:55:11.514Z,11.35
2022-08-19T05:57:40.611Z,12.38
2022-08-19T06:00:11.305Z,11.82
2022-08-19T06:02:39.953Z,11.98
2022-08-19T06:05:10.092Z,12.68
2022-08-19T06:07:38.200Z,12.65
2022-08-19T06:10:08.660Z,13.32
2022-08-19T06:12:36.818Z,12.88
2022-08-19T06:15:11.597Z,13.38
2022-08-19T06:17:39.304Z,14.50
2022-08-19T06:20:12.858Z,13.85
2022-08-19T06:22:47.130Z,13.05
2022-08-19T06:25:16.591Z,13.65
2022-08-19T06:28:11.633Z,13.25
2022-08-19T06:30:31.409Z,14.55
2022-08-19T06:32:58.738Z,14.18
2022-08-19T06:35:26.337Z,14.77
2022-08-19T06:37:53.546Z,15.38
2022-08-19T06:40:20.924Z,15.20
2022-08-19T06:42:55.057Z,15.40
2022-08-19T06:45:25.186Z,14.88
2022-08-19T06:48:01.516Z,15.30
2022-08-19T06:50:28.604Z,14.57
2022-08-19T06:52:55.918Z,15.05
2022-08-19T06:55:23.339Z,15.43
2022-08-19T06:57:54.180Z,14.73
2022-08-19T07:00:21.832Z,14.85
2022-08-19T07:02:54.297Z,14.60
2022-08-19T07:05:24.431Z,14.57
2022-08-19T07:07:51.497Z,13.90
2022-08-19T07:10:20.042Z,14.10
2022-08-19T07:12:47.507Z,14.57
2022-08-19T07:15:15.719Z,13.23
2022-08-19T07:17:44.272Z,12.23
2022-08-19T07:20:12.275Z,11.85
2022-08-19T07:22:40.223Z,11.23
2022-08-19T07:25:09.862Z,11.20
2022-08-19T07:27:38.042Z,11.15
2022-08-19T07:30:11.626Z,11.52
2022-08-19T07:32:40.749Z,11.13
2022-08-19T07:35:10.247Z,11.52
2022-08-19T07:37:39.203Z,11.20
2022-08-19T07:40:08.636Z,10.95
2022-08-19T07:42:36.044Z,11.25
2022-08-19T07:45:03.781Z,11.05
2022-08-19T07:47:48.288Z,10.40
2022-08-19T07:50:20.718Z,10.93
2022-08-19T07:52:50.838Z,10.23
2022-08-19T07:55:41.998Z,10.60
2022-08-19T07:58:13.539Z,9.95
2022-08-19T08:00:42.569Z,9.82
2022-08-19T08:03:11.081Z,9.52
2022-08-19T08:05:57.160Z,9.43
2022-08-19T08:08:43.922Z,8.75
2022-08-19T08:11:15.536Z,9.15
2022-08-19T08:13:43.580Z,9.38
2022-08-19T08:16:13.971Z,9.23
2022-08-19T08:18:43.336Z,8.75
2022-08-19T08:21:17.812Z,9.60
2022-08-19T08:23:45.045Z,9.52
2022-08-19T08:26:14.020Z,8.85
2022-08-19T08:28:43.078Z,11.02
2022-08-19T08:31:15.515Z,10.27
2022-08-19T08:33:43.272Z,10.60
2022-08-19T08:36:10.918Z,11.23
2022-08-19T08:38:40.952Z,11.65
2022-08-19T08:41:20.634Z,11.60
2022-08-19T08:43:52.895Z,10.85
2022-08-19T08:46:43.176Z,10.52
2022-08-19T08:49:44.583Z,11.35
2022-08-19T08:52:32.175Z,9.70
2022-08-19T08:55:10.478Z,11.23
2022-08-19T08:57:52.256Z,11.43
2022-08-19T09:00:26.075Z,10.77
2022-08-19T09:02:54.831Z,10.95
2022-08-19T09:05:26.001Z,12.43
2022-08-19T09:08:41.741Z,11.18
2022-08-19T09:11:42.860Z,10.20
2022-08-19T09:14:47.239Z,10.68
2022-08-19T09:17:10.795Z,10.15
2022-08-19T09:19:53.253Z,12.45
2022-08-19T09:22:25.996Z,12.82
2022-08-19T09:24:55.508Z,13.48
2022-08-19T09:27:42.440Z,12.80
2022-08-19T09:30:24.853Z,12.32
2022-08-19T09:32:55.762Z,12.88
2022-08-19T09:35:28.389Z,12.30
2022-08-19T09:37:59.628Z,12.40
2022-08-19T09:40:35.456Z,12.50
2022-08-19T09:43:10.102Z,12.00
2022-08-19T09:45:40.327Z,12.30
2022-08-19T09:48:07.502Z,12.40
2022-08-19T09:50:39.409Z,11.15
2022-08-19T09:53:25.221Z,10.15
2022-08-19T09:55:55.530Z,11.00
2022-08-19T09:58:26.738Z,10.73
2022-08-19T10:00:55.261Z,9.00
2022-08-19T10:03:25.581Z,8.13
2022-08-19T10:06:01.290Z,9.25
2022-08-19T10:08:36.008Z,9.82
2022-08-19T10:11:27.995Z,8.75
2022-08-19T10:13:53.156Z,8.90
2022-08-19T10:16:25.973Z,7.07
2022-08-19T10:18:59.103Z,9.13
2022-08-19T10:21:33.733Z,8.02
2022-08-19T10:24:05.194Z,7.43
2022-08-19T10:26:37.913Z,6.88
2022-08-19T10:29:06.575Z,8.77
2022-08-19T10:32:00.510Z,9.23
2022-08-19T10:34:27.919Z,7.88
2022-08-19T10:37:00.966Z,6.20
2022-08-19T10:39:32.825Z,5.57
2022-08-19T10:42:14.343Z,4.43
2022-08-19T10:44:42.411Z,4.13
2022-08-19T10:47:17.621Z,4.57
2022-08-19T10:50:11.869Z,5.10
2022-08-19T10:52:49.266Z,6.13
2022-08-19T10:55:42.654Z,5.25
2022-08-19T10:58:23.037Z,5.05
2022-08-19T11:00:57.459Z,4.00
2022-08-19T11:03:26.248Z,4.37
2022-08-19T11:06:06.786Z,4.05
2022-08-19T11:08:38.666Z,4.20
2022-08-19T11:11:07.768Z,4.78
2022-08-19T11:13:40.349Z,5.40
2022-08-19T11:16:22.479Z,6.70
2022-08-19T11:18:54.685Z,6.05
2022-08-19T11:21:32.733Z,7.70
2022-08-19T11:24:06.876Z,6.28
2022-08-19T11:26:36.491Z,6.95
2022-08-19T11:29:07.044Z,6.10
2022-08-19T11:31:37.153Z,6.38
2022-08-19T11:34:07.337Z,5.72
2022-08-19T11:36:37.848Z,5.13
2022-08-19T11:39:07.835Z,4.78
2022-08-19T11:41:35.464Z,5.07
2022-08-19T11:44:04.249Z,6.78
2022-08-19T11:46:32.461Z,5.22
2022-08-19T11:49:01.635Z,5.25
2022-08-19T11:51:29.763Z,5.10
2022-08-19T11:53:59.752Z,6.30
2022-08-19T11:56:28.090Z,6.65
2022-08-19T11:58:57.664Z,6.70
2022-08-19T12:01:26.925Z,6.55
2022-08-19T12:03:56.880Z,7.38
2022-08-19T12:06:32.619Z,7.40
2022-08-19T12:09:05.691Z,7.45
2022-08-19T12:11:34.868Z,6.32
2022-08-19T12:14:02.531Z,5.70
2022-08-19T12:16:32.539Z,5.40
2022-08-19T12:19:05.076Z,6.05
2022-08-19T12:21:35.213Z,5.60
2022-08-19T12:24:05.449Z,5.38
2022-08-19T12:26:34.301Z,6.05
2022-08-19T12:29:04.209Z,5.80
2022-08-19T12:31:32.061Z,5.82
2022-08-19T12:33:59.596Z,5.45
2022-08-19T12:36:26.634Z,4.35
2022-08-19T12:38:54.474Z,3.80
2022-08-19T12:41:23.296Z,3.90
2022-08-19T12:43:50.986Z,3.25
2022-08-19T12:46:20.613Z,3.95
2022-08-19T12:48:51.191Z,3.70
2022-08-19T12:51:22.662Z,2.90
2022-08-19T12:53:50.774Z,2.30
2022-08-19T12:56:23.064Z,2.38
2022-08-19T12:58:52.889Z,3.30
2022-08-19T13:01:22.540Z,4.32
2022-08-19T13:03:53.358Z,4.47
2022-08-19T13:06:20.611Z,3.70
2022-08-19T13:08:48.660Z,3.97
2022-08-19T13:11:20.563Z,5.13
2022-08-19T13:13:51.352Z,4.07
2022-08-19T13:16:21.022Z,3.97
2022-08-19T13:18:48.657Z,3.72
2022-08-19T13:21:16.745Z,4.68
2022-08-19T13:23:43.843Z,6.10
2022-08-19T13:26:12.808Z,5.30
2022-08-19T13:29:00.631Z,5.65
2022-08-19T13:31:49.264Z,6.15
2022-08-19T13:34:20.032Z,6.07
2022-08-19T13:36:47.500Z,5.97
2022-08-19T13:39:14.624Z,7.40
2022-08-19T13:41:48.936Z,6.32
2022-08-19T13:44:19.101Z,7.00
2022-08-19T13:46:49.460Z,7.75
2022-08-19T13:49:21.528Z,5.78
2022-08-19T13:51:48.762Z,5.28
2022-08-19T13:54:15.818Z,5.53
2022-08-19T13:56:46.473Z,5.65
2022-08-19T13:59:13.565Z,5.30
2022-08-19T14:01:42.131Z,6.90
2022-08-19T14:04:10.097Z,7.63
2022-08-19T14:06:37.391Z,7.40
2022-08-19T14:09:06.027Z,8.07
2022-08-19T14:11:33.169Z,9.30
2022-08-19T14:14:00.175Z,8.65
2022-08-19T14:16:28.271Z,7.70
2022-08-19T14:18:55.827Z,8.98
2022-08-19T14:21:25.505Z,12.40
2022-08-19T14:23:53.661Z,12.20
2022-08-19T14:26:22.604Z,13.57
2022-08-19T14:28:50.317Z,12.02
2022-08-19T14:31:20.167Z,13.90
2022-08-19T14:33:48.881Z,12.32
2022-08-19T14:36:16.299Z,11.75
2022-08-19T14:38:44.285Z,11.00
2022-08-19T14:41:22.303Z,11.45
2022-08-19T14:43:51.797Z,11.10
2022-08-19T14:46:23.784Z,8.85
2022-08-19T14:48:53.112Z,10.23
2022-08-19T14:51:22.500Z,13.10
2022-08-19T14:53:50.456Z,13.27
2022-08-19T14:56:23.746Z,14.20
2022-08-19T14:58:53.947Z,14.13
2022-08-19T15:01:23.405Z,12.13
2022-08-19T15:03:53.852Z,15.65
2022-08-19T15:06:23.159Z,12.32
2022-08-19T15:08:52.519Z,12.52
2022-08-19T15:11:23.555Z,12.73
2022-08-19T15:13:51.882Z,13.48
2022-08-19T15:16:20.425Z,13.02
2022-08-19T15:18:55.605Z,14.77
2022-08-19T15:21:27.286Z,14.20
2022-08-19T15:23:57.531Z,14.50
2022-08-19T15:26:27.241Z,14.25
2022-08-19T15:28:54.948Z,12.90
2022-08-19T15:31:25.506Z,13.35
2022-08-19T15:33:58.429Z,13.70
2022-08-19T15:36:27.055Z,13.25
2022-08-19T15:38:56.388Z,12.15
2022-08-19T15:41:27.951Z,10.85
2022-08-19T15:44:00.514Z,11.18
2022-08-19T15:46:32.105Z,10.27
2022-08-19T15:49:00.655Z,8.57
2022-08-19T15:51:35.367Z,9.60
2022-08-19T15:54:21.625Z,9.73
2022-08-19T15:57:09.221Z,8.50
2022-08-19T15:59:56.763Z,8.02
2022-08-19T16:02:47.285Z,7.88
2022-08-19T16:05:37.755Z,7.10
2022-08-19T16:08:06.348Z,6.80
2022-08-19T16:10:33.549Z,6.50
2022-08-19T16:13:00.733Z,8.15
2022-08-19T16:15:30.575Z,7.78
2022-08-19T16:17:58.626Z,8.60
2022-08-19T16:20:27.665Z,8.50
2022-08-19T16:22:58.587Z,8.30
2022-08-19T16:25:29.142Z,9.05
2022-08-19T16:28:07.880Z,9.15
2022-08-19T16:30:38.470Z,8.80
2022-08-19T16:33:06.453Z,9.32
2022-08-19T16:35:33.642Z,8.52
2022-08-19T16:38:01.980Z,8.20
2022-08-19T16:40:29.055Z,9.40
2022-08-19T16:42:56.445Z,8.82
2022-08-19T16:45:23.577Z,10.13
2022-08-19T16:47:50.758Z,9.63
2022-08-19T16:50:25.436Z,10.90
2022-08-19T16:53:09.418Z,9.25
2022-08-19T16:55:37.633Z,9.30
2022-08-19T16:58:04.966Z,10.48
2022-08-19T17:00:32.404Z,10.05
2022-08-19T17:03:14.658Z,9.55
2022-08-19T17:05:47.973Z,9.77
2022-08-19T17:08:16.927Z,10.82
2022-08-19T17:10:56.842Z,10.65
2022-08-19T17:13:32.470Z,9.90
2022-08-19T17:15:59.620Z,10.38
2022-08-19T17:18:26.900Z,11.00
2022-08-19T17:21:01.047Z,10.65
2022-08-19T17:23:42.112Z,10.55
2022-08-19T17:26:14.112Z,8.60
2022-08-19T17:28:51.028Z,11.13
2022-08-19T17:31:21.482Z,9.93
2022-08-19T17:33:49.110Z,9.52
2022-08-19T17:36:19.363Z,12.38
2022-08-19T17:38:46.920Z,12.50
2022-08-19T17:41:14.042Z,10.63
2022-08-19T17:43:43.948Z,11.50
2022-08-19T17:46:18.067Z,13.00
2022-08-19T17:48:52.741Z,12.93
2022-08-19T17:51:40.655Z,13.77
2022-08-19T17:54:18.555Z,13.18
2022-08-19T17:56:46.653Z,13.43
2022-08-19T17:59:15.444Z,15.38
2022-08-19T18:01:53.973Z,15.18
2022-08-19T18:04:25.064Z,16.48
2022-08-19T18:06:55.130Z,15.88
2022-08-19T18:09:41.931Z,14.07
2022-08-19T18:12:14.121Z,14.82
2022-08-19T18:14:42.026Z,14.40
2022-08-19T18:17:14.297Z,14.65
2022-08-19T18:19:43.858Z,15.05
2022-08-19T18:22:33.572Z,15.70
2022-08-19T18:25:02.837Z,15.63
2022-08-19T18:27:30.513Z,14.10
2022-08-19T18:29:59.574Z,13.85
2022-08-19T18:32:39.002Z,13.27
2022-08-19T18:35:12.547Z,12.75
2022-08-19T18:37:41.595Z,13.00
2022-08-19T18:40:31.659Z,11.50
2022-08-19T18:43:17.696Z,12.80
2022-08-19T18:46:04.077Z,12.82
2022-08-19T18:48:54.218Z,11.93
2022-08-19T18:51:27.730Z,11.82
2022-08-19T18:53:58.653Z,10.73
2022-08-19T18:56:29.213Z,12.70
2022-08-19T18:58:56.731Z,12.20
2022-08-19T19:01:34.911Z,11.23
2022-08-19T19:04:06.048Z,9.13
2022-08-19T19:06:40.360Z,7.35
2022-08-19T19:09:16.345Z,7.68
2022-08-19T19:11:48.307Z,6.22
2022-08-19T19:14:47.797Z,4.97
2022-08-19T19:17:14.674Z,4.65
2022-08-19T19:19:43.950Z,4.80
2022-08-19T19:22:18.592Z,6.03
2022-08-19T19:24:46.061Z,5.13
2022-08-19T19:27:16.245Z,6.25
2022-08-19T19:29:46.466Z,5.20
2022-08-19T19:32:35.807Z,5.43
2022-08-19T19:35:07.940Z,5.72
2022-08-19T19:37:35.035Z,6.22
2022-08-19T19:40:02.556Z,5.93
2022-08-19T19:42:29.603Z,5.22
2022-08-19T19:44:56.765Z,4.80
2022-08-19T19:47:24.355Z,4.93
2022-08-19T19:50:13.266Z,4.18
2022-08-19T19:52:41.056Z,4.00
2022-08-19T19:55:17.928Z,4.43
2022-08-19T19:57:49.152Z,4.82
2022-08-19T20:00:18.853Z,4.78
2022-08-19T20:02:50.093Z,5.10
2022-08-19T20:05:21.293Z,5.13
2022-08-19T20:08:09.692Z,5.22
2022-08-19T20:10:37.940Z,5.18
2022-08-19T20:13:06.877Z,5.63
2022-08-19T20:15:37.911Z,5.45
2022-08-19T20:18:07.566Z,5.50
2022-08-19T20:20:35.391Z,5.80
2022-08-19T20:23:02.477Z,6.30
2022-08-19T20:25:30.396Z,6.05
2022-08-19T20:27:57.620Z,5.60
2022-08-19T20:30:25.437Z,5.90
2022-08-19T20:32:56.412Z,5.40
2022-08-19T20:35:24.090Z,5.50
2022-08-19T20:37:53.831Z,5.93
2022-08-19T20:40:24.520Z,5.60
2022-08-19T20:42:51.579Z,4.75
2022-08-19T20:45:32.133Z,4.65
2022-08-19T20:48:05.351Z,4.82
2022-08-19T20:50:35.189Z,4.65
2022-08-19T20:53:13.888Z,4.80
2022-08-19T20:55:45.399Z,5.20
2022-08-19T20:58:13.441Z,5.25
2022-08-19T21:00:45.519Z,5.85
2022-08-19T21:03:18.805Z,5.40
2022-08-19T21:05:46.463Z,5.78
2022-08-19T21:08:14.592Z,6.05
2022-08-19T21:10:42.506Z,6.53
2022-08-19T21:13:09.939Z,6.68
2022-08-19T21:15:40.558Z,6.75
2022-08-19T21:18:08.280Z,7.22
2022-08-19T21:20:35.438Z,6.47
2022-08-19T21:23:10.580Z,7.05
2022-08-19T21:25:38.222Z,7.60
2022-08-19T21:28:06.073Z,6.97
2022-08-19T21:30:34.753Z,7.53
2022-08-19T21:33:04.483Z,7.53
2022-08-19T21:35:32.090Z,8.02
2022-08-19T21:37:59.191Z,7.40
2022-08-19T21:40:26.985Z,7.10
2022-08-19T21:42:54.194Z,8.00
2022-08-19T21:45:22.888Z,8.38
2022-08-19T21:47:50.735Z,7.60
2022-08-19T21:50:17.932Z,8.55
2022-08-19T21:52:46.495Z,7.68
2022-08-19T21:55:14.740Z,8.63
2022-08-19T21:57:42.608Z,8.35
2022-08-19T22:00:18.777Z,9.27
2022-08-19T22:02:45.965Z,9.45
2022-08-19T22:05:13.787Z,8.75
2022-08-19T22:07:42.615Z,9.13
2022-08-19T22:10:10.908Z,8.95
2022-08-19T22:12:51.520Z,9.48
2022-08-19T22:15:23.856Z,9.80
2022-08-19T22:17:51.025Z,9.82
2022-08-19T22:20:23.533Z,10.52
2022-08-19T22:22:58.501Z,10.40
2022-08-19T22:25:40.510Z,10.20
2022-08-19T22:28:10.976Z,11.20
2022-08-19T22:30:42.317Z,10.18
2022-08-19T22:33:16.962Z,9.88
2022-08-19T22:35:46.918Z,9.73
2022-08-19T22:38:15.798Z,9.63
2022-08-19T22:40:48.400Z,9.52
2022-08-19T22:43:24.476Z,9.95
2022-08-19T22:45:54.547Z,10.38
2022-08-19T22:48:26.297Z,9.90
2022-08-19T22:51:13.108Z,10.70
2022-08-19T22:53:42.993Z,10.18
2022-08-19T22:56:15.065Z,11.27
2022-08-19T22:58:43.477Z,10.65
2022-08-19T23:01:14.703Z,10.07
2022-08-19T23:03:56.419Z,11.15
2022-08-19T23:06:23.452Z,10.98
2022-08-19T23:08:58.740Z,11.33
2022-08-19T23:11:25.878Z,10.43
2022-08-19T23:13:53.099Z,10.50
2022-08-19T23:16:20.651Z,10.45
2022-08-19T23:18:48.163Z,10.98
2022-08-19T23:21:16.535Z,10.25
2022-08-19T23:23:44.101Z,11.00
2022-08-19T23:26:12.013Z,10.65
2022-08-19T23:28:58.049Z,10.98
2022-08-19T23:31:26.906Z,11.00
2022-08-19T23:33:53.922Z,11.05
2022-08-19T23:36:22.498Z,10.85
2022-08-19T23:38:52.212Z,11.32
2022-08-19T23:41:21.960Z,11.18
2022-08-19T23:43:51.423Z,11.38
2022-08-19T23:46:27.569Z,11.02
2022-08-19T23:48:56.669Z,10.95
2022-08-19T23:51:24.568Z,11.48
2022-08-19T23:53:51.635Z,10.85
2022-08-19T23:56:18.700Z,10.32
2022-08-19T23:58:47.095Z,10.20
